sensor_id;sensor_type;location;lat;lon;timestamp;temperature;humidity
54431;DHT22;40342;52.998;5.862;2024-02-26T00:01:52;3.80;99.90
54431;DHT22;40342;52.998;5.862;2024-02-26T00:04:18;3.90;99.90
54431;DHT22;40342;52.998;5.862;2024-02-26T00:06:43;3.90;99.90
54431;DHT22;40342;52.998;5.862;2024-02-26T00:09:10;3.90;99.90
54431;DHT22;40342;52.998;5.862;2024-02-26T00:11:36;3.80;99.90
54431;DHT22;40342;52.998;5.862;2024-02-26T00:14:02;3.80;99.90
54431;DHT22;40342;52.998;5.862;2024-02-26T00:16:28;3.80;99.90
54431;DHT22;40342;52.998;5.862;2024-02-26T00:18:54;3.80;99.90
54431;DHT22;40342;52.998;5.862;2024-02-26T00:21:19;3.80;99.90
54431;DHT22;40342;52.998;5.862;2024-02-26T00:23:45;3.80;99.90
54431;DHT22;40342;52.998;5.862;2024-02-26T00:26:11;3.80;99.90
54431;DHT22;40342;52.998;5.862;2024-02-26T00:28:37;3.80;99.90
54431;DHT22;40342;52.998;5.862;2024-02-26T00:31:02;3.80;99.90
54431;DHT22;40342;52.998;5.862;2024-02-26T00:33:28;3.80;99.90
54431;DHT22;40342;52.998;5.862;2024-02-26T00:35:54;3.80;99.90
54431;DHT22;40342;52.998;5.862;2024-02-26T00:38:19;3.80;99.90
54431;DHT22;40342;52.998;5.862;2024-02-26T00:40:45;3.80;99.90
54431;DHT22;40342;52.998;5.862;2024-02-26T00:43:11;3.80;99.90
54431;DHT22;40342;52.998;5.862;2024-02-26T00:45:37;3.70;99.90
54431;DHT22;40342;52.998;5.862;2024-02-26T00:48:03;3.70;99.90
54431;DHT22;40342;52.998;5.862;2024-02-26T00:50:34;3.70;99.90
54431;DHT22;40342;52.998;5.862;2024-02-26T00:53:01;3.70;99.90
54431;DHT22;40342;52.998;5.862;2024-02-26T00:55:26;3.70;99.90
54431;DHT22;40342;52.998;5.862;2024-02-26T00:57:52;3.60;99.90
54431;DHT22;40342;52.998;5.862;2024-02-26T01:00:18;3.60;99.90
54431;DHT22;40342;52.998;5.862;2024-02-26T01:02:43;3.60;99.90
54431;DHT22;40342;52.998;5.862;2024-02-26T01:05:12;3.60;99.90
54431;DHT22;40342;52.998;5.862;2024-02-26T01:07:38;3.60;99.90
54431;DHT22;40342;52.998;5.862;2024-02-26T01:10:05;3.60;99.90
54431;DHT22;40342;52.998;5.862;2024-02-26T01:12:34;3.60;99.90
54431;DHT22;40342;52.998;5.862;2024-02-26T01:15:04;3.60;99.90
54431;DHT22;40342;52.998;5.862;2024-02-26T01:17:30;3.60;99.90
54431;DHT22;40342;52.998;5.862;2024-02-26T01:19:56;3.60;99.90
54431;DHT22;40342;52.998;5.862;2024-02-26T01:22:22;3.70;99.90
54431;DHT22;40342;52.998;5.862;2024-02-26T01:24:47;3.60;99.90
54431;DHT22;40342;52.998;5.862;2024-02-26T01:27:13;3.60;99.90
54431;DHT22;40342;52.998;5.862;2024-02-26T01:29:41;3.60;99.90
54431;DHT22;40342;52.998;5.862;2024-02-26T01:32:06;3.60;99.90
54431;DHT22;40342;52.998;5.862;2024-02-26T01:34:32;3.60;99.90
54431;DHT22;40342;52.998;5.862;2024-02-26T01:36:58;3.60;99.90
54431;DHT22;40342;52.998;5.862;2024-02-26T01:39:23;3.60;99.90
54431;DHT22;40342;52.998;5.862;2024-02-26T01:41:49;3.60;99.90
54431;DHT22;40342;52.998;5.862;2024-02-26T01:44:15;3.60;99.90
54431;DHT22;40342;52.998;5.862;2024-02-26T01:46:41;3.60;99.90
54431;DHT22;40342;52.998;5.862;2024-02-26T01:49:08;3.60;99.90
54431;DHT22;40342;52.998;5.862;2024-02-26T01:51:39;3.50;99.90
54431;DHT22;40342;52.998;5.862;2024-02-26T01:54:05;3.50;99.90
54431;DHT22;40342;52.998;5.862;2024-02-26T01:56:32;3.50;99.90
54431;DHT22;40342;52.998;5.862;2024-02-26T01:58:58;3.50;99.90
54431;DHT22;40342;52.998;5.862;2024-02-26T02:01:32;3.50;99.90
54431;DHT22;40342;52.998;5.862;2024-02-26T02:03:59;3.50;99.90
54431;DHT22;40342;52.998;5.862;2024-02-26T02:06:26;3.50;99.90
54431;DHT22;40342;52.998;5.862;2024-02-26T02:08:54;3.50;99.90
54431;DHT22;40342;52.998;5.862;2024-02-26T02:11:20;3.50;99.90
54431;DHT22;40342;52.998;5.862;2024-02-26T02:13:46;3.50;99.90
54431;DHT22;40342;52.998;5.862;2024-02-26T02:16:12;3.50;99.90
54431;DHT22;40342;52.998;5.862;2024-02-26T02:18:37;3.50;99.90
54431;DHT22;40342;52.998;5.862;2024-02-26T02:21:03;3.50;99.90
54431;DHT22;40342;52.998;5.862;2024-02-26T02:23:29;3.40;99.90
54431;DHT22;40342;52.998;5.862;2024-02-26T02:25:56;3.50;99.90
54431;DHT22;40342;52.998;5.862;2024-02-26T02:28:23;3.50;99.90
54431;DHT22;40342;52.998;5.862;2024-02-26T02:30:50;3.50;99.90
54431;DHT22;40342;52.998;5.862;2024-02-26T02:33:16;3.40;99.90
54431;DHT22;40342;52.998;5.862;2024-02-26T02:35:42;3.50;99.90
54431;DHT22;40342;52.998;5.862;2024-02-26T02:38:08;3.50;99.90
54431;DHT22;40342;52.998;5.862;2024-02-26T02:40:34;3.40;99.90
54431;DHT22;40342;52.998;5.862;2024-02-26T02:43:00;3.50;99.90
54431;DHT22;40342;52.998;5.862;2024-02-26T02:45:27;3.40;99.90
54431;DHT22;40342;52.998;5.862;2024-02-26T02:47:53;3.40;99.90
54431;DHT22;40342;52.998;5.862;2024-02-26T02:50:18;3.40;99.90
54431;DHT22;40342;52.998;5.862;2024-02-26T02:52:44;3.40;99.90
54431;DHT22;40342;52.998;5.862;2024-02-26T02:55:10;3.40;99.90
54431;DHT22;40342;52.998;5.862;2024-02-26T02:57:36;3.40;99.90
54431;DHT22;40342;52.998;5.862;2024-02-26T03:00:08;3.40;99.90
54431;DHT22;40342;52.998;5.862;2024-02-26T03:02:33;3.40;99.90
54431;DHT22;40342;52.998;5.862;2024-02-26T03:05:01;3.40;99.90
54431;DHT22;40342;52.998;5.862;2024-02-26T03:07:28;3.50;99.90
54431;DHT22;40342;52.998;5.862;2024-02-26T03:09:53;3.40;99.90
54431;DHT22;40342;52.998;5.862;2024-02-26T03:12:19;3.40;99.90
54431;DHT22;40342;52.998;5.862;2024-02-26T03:14:44;3.40;99.90
54431;DHT22;40342;52.998;5.862;2024-02-26T03:17:10;3.50;99.90
54431;DHT22;40342;52.998;5.862;2024-02-26T03:19:36;3.50;99.90
54431;DHT22;40342;52.998;5.862;2024-02-26T03:22:01;3.50;99.90
54431;DHT22;40342;52.998;5.862;2024-02-26T03:24:27;3.40;99.90
54431;DHT22;40342;52.998;5.862;2024-02-26T03:26:53;3.50;99.90
54431;DHT22;40342;52.998;5.862;2024-02-26T03:29:19;3.50;99.90
54431;DHT22;40342;52.998;5.862;2024-02-26T03:31:44;3.50;99.90
54431;DHT22;40342;52.998;5.862;2024-02-26T03:34:10;3.50;99.90
54431;DHT22;40342;52.998;5.862;2024-02-26T03:36:38;3.50;99.90
54431;DHT22;40342;52.998;5.862;2024-02-26T03:39:03;3.40;99.90
54431;DHT22;40342;52.998;5.862;2024-02-26T03:41:33;3.50;99.90
54431;DHT22;40342;52.998;5.862;2024-02-26T03:43:59;3.40;99.90
54431;DHT22;40342;52.998;5.862;2024-02-26T03:46:25;3.50;99.90
54431;DHT22;40342;52.998;5.862;2024-02-26T03:48:50;3.40;99.90
54431;DHT22;40342;52.998;5.862;2024-02-26T03:51:16;3.40;99.90
54431;DHT22;40342;52.998;5.862;2024-02-26T03:53:41;3.40;99.90
54431;DHT22;40342;52.998;5.862;2024-02-26T03:56:07;3.40;99.90
54431;DHT22;40342;52.998;5.862;2024-02-26T03:58:33;3.40;99.90
54431;DHT22;40342;52.998;5.862;2024-02-26T04:00:59;3.40;99.90
54431;DHT22;40342;52.998;5.862;2024-02-26T04:03:25;3.40;99.90
54431;DHT22;40342;52.998;5.862;2024-02-26T04:05:51;3.40;99.90
54431;DHT22;40342;52.998;5.862;2024-02-26T04:08:16;3.40;99.90
54431;DHT22;40342;52.998;5.862;2024-02-26T04:10:42;3.40;99.90
54431;DHT22;40342;52.998;5.862;2024-02-26T04:13:08;3.40;99.90
54431;DHT22;40342;52.998;5.862;2024-02-26T04:15:34;3.50;99.90
54431;DHT22;40342;52.998;5.862;2024-02-26T04:17:59;3.40;99.90
54431;DHT22;40342;52.998;5.862;2024-02-26T04:20:25;3.50;99.90
54431;DHT22;40342;52.998;5.862;2024-02-26T04:22:51;3.50;99.90
54431;DHT22;40342;52.998;5.862;2024-02-26T04:25:16;3.50;99.90
54431;DHT22;40342;52.998;5.862;2024-02-26T04:27:42;3.50;99.90
54431;DHT22;40342;52.998;5.862;2024-02-26T04:30:08;3.40;99.90
54431;DHT22;40342;52.998;5.862;2024-02-26T04:32:34;3.50;99.90
54431;DHT22;40342;52.998;5.862;2024-02-26T04:35:01;3.50;99.90
54431;DHT22;40342;52.998;5.862;2024-02-26T04:37:27;3.50;99.90
54431;DHT22;40342;52.998;5.862;2024-02-26T04:39:58;3.50;99.90
54431;DHT22;40342;52.998;5.862;2024-02-26T04:42:24;3.50;99.90
54431;DHT22;40342;52.998;5.862;2024-02-26T04:44:50;3.40;99.90
54431;DHT22;40342;52.998;5.862;2024-02-26T04:47:16;3.50;99.90
54431;DHT22;40342;52.998;5.862;2024-02-26T04:49:41;3.50;99.90
54431;DHT22;40342;52.998;5.862;2024-02-26T04:52:07;3.50;99.90
54431;DHT22;40342;52.998;5.862;2024-02-26T04:54:33;3.50;99.90
54431;DHT22;40342;52.998;5.862;2024-02-26T04:56:58;3.50;99.90
54431;DHT22;40342;52.998;5.862;2024-02-26T04:59:24;3.50;99.90
54431;DHT22;40342;52.998;5.862;2024-02-26T05:01:50;3.40;99.90
54431;DHT22;40342;52.998;5.862;2024-02-26T05:04:17;3.50;99.90
54431;DHT22;40342;52.998;5.862;2024-02-26T05:06:42;3.50;99.90
54431;DHT22;40342;52.998;5.862;2024-02-26T05:09:08;3.50;99.90
54431;DHT22;40342;52.998;5.862;2024-02-26T05:11:33;3.50;99.90
54431;DHT22;40342;52.998;5.862;2024-02-26T05:14:00;3.50;99.90
54431;DHT22;40342;52.998;5.862;2024-02-26T05:16:26;3.50;99.90
54431;DHT22;40342;52.998;5.862;2024-02-26T05:18:53;3.50;99.90
54431;DHT22;40342;52.998;5.862;2024-02-26T05:21:18;3.50;99.90
54431;DHT22;40342;52.998;5.862;2024-02-26T05:23:44;3.60;99.90
54431;DHT22;40342;52.998;5.862;2024-02-26T05:26:10;3.50;99.90
54431;DHT22;40342;52.998;5.862;2024-02-26T05:28:36;3.60;99.90
54431;DHT22;40342;52.998;5.862;2024-02-26T05:31:05;3.60;99.90
54431;DHT22;40342;52.998;5.862;2024-02-26T05:33:31;3.60;99.90
54431;DHT22;40342;52.998;5.862;2024-02-26T05:35:56;3.60;99.90
54431;DHT22;40342;52.998;5.862;2024-02-26T05:38:22;3.60;99.90
54431;DHT22;40342;52.998;5.862;2024-02-26T05:40:47;3.60;99.90
54431;DHT22;40342;52.998;5.862;2024-02-26T05:43:13;3.60;99.90
54431;DHT22;40342;52.998;5.862;2024-02-26T05:45:41;3.60;99.90
54431;DHT22;40342;52.998;5.862;2024-02-26T05:48:07;3.60;99.90
54431;DHT22;40342;52.998;5.862;2024-02-26T05:50:32;3.60;99.90
54431;DHT22;40342;52.998;5.862;2024-02-26T05:52:58;3.60;99.90
54431;DHT22;40342;52.998;5.862;2024-02-26T05:55:23;3.60;99.90
54431;DHT22;40342;52.998;5.862;2024-02-26T05:57:49;3.60;99.90
54431;DHT22;40342;52.998;5.862;2024-02-26T06:00:15;3.60;99.90
54431;DHT22;40342;52.998;5.862;2024-02-26T06:02:41;3.60;99.90
54431;DHT22;40342;52.998;5.862;2024-02-26T06:05:06;3.60;99.90
54431;DHT22;40342;52.998;5.862;2024-02-26T06:07:34;3.60;99.90
54431;DHT22;40342;52.998;5.862;2024-02-26T06:10:00;3.60;99.90
54431;DHT22;40342;52.998;5.862;2024-02-26T06:12:26;3.60;99.90
54431;DHT22;40342;52.998;5.862;2024-02-26T06:14:54;3.60;99.90
54431;DHT22;40342;52.998;5.862;2024-02-26T06:17:19;3.50;99.90
54431;DHT22;40342;52.998;5.862;2024-02-26T06:19:45;3.60;99.90
54431;DHT22;40342;52.998;5.862;2024-02-26T06:22:10;3.50;99.90
54431;DHT22;40342;52.998;5.862;2024-02-26T06:24:36;3.60;99.90
54431;DHT22;40342;52.998;5.862;2024-02-26T06:27:03;3.60;99.90
54431;DHT22;40342;52.998;5.862;2024-02-26T06:29:28;3.60;99.90
54431;DHT22;40342;52.998;5.862;2024-02-26T06:31:54;3.60;99.90
54431;DHT22;40342;52.998;5.862;2024-02-26T06:34:20;3.60;99.90
54431;DHT22;40342;52.998;5.862;2024-02-26T06:36:46;3.60;99.90
54431;DHT22;40342;52.998;5.862;2024-02-26T06:39:12;3.50;99.90
54431;DHT22;40342;52.998;5.862;2024-02-26T06:41:38;3.60;99.90
54431;DHT22;40342;52.998;5.862;2024-02-26T06:44:06;3.60;99.90
54431;DHT22;40342;52.998;5.862;2024-02-26T06:46:31;3.60;99.90
54431;DHT22;40342;52.998;5.862;2024-02-26T06:48:57;3.60;99.90
54431;DHT22;40342;52.998;5.862;2024-02-26T06:51:23;3.50;99.90
54431;DHT22;40342;52.998;5.862;2024-02-26T06:53:49;3.60;99.90
54431;DHT22;40342;52.998;5.862;2024-02-26T06:56:15;3.60;99.90
54431;DHT22;40342;52.998;5.862;2024-02-26T06:58:40;3.50;99.90
54431;DHT22;40342;52.998;5.862;2024-02-26T07:01:06;3.60;99.90
54431;DHT22;40342;52.998;5.862;2024-02-26T07:03:33;3.60;99.90
54431;DHT22;40342;52.998;5.862;2024-02-26T07:05:59;3.50;99.90
54431;DHT22;40342;52.998;5.862;2024-02-26T07:08:25;3.60;99.90
54431;DHT22;40342;52.998;5.862;2024-02-26T07:10:50;3.50;99.90
54431;DHT22;40342;52.998;5.862;2024-02-26T07:13:16;3.60;99.90
54431;DHT22;40342;52.998;5.862;2024-02-26T07:15:41;3.50;99.90
54431;DHT22;40342;52.998;5.862;2024-02-26T07:18:07;3.50;99.90
54431;DHT22;40342;52.998;5.862;2024-02-26T07:20:33;3.60;99.90
54431;DHT22;40342;52.998;5.862;2024-02-26T07:22:59;3.60;99.90
54431;DHT22;40342;52.998;5.862;2024-02-26T07:25:24;3.60;99.90
54431;DHT22;40342;52.998;5.862;2024-02-26T07:27:50;3.60;99.90
54431;DHT22;40342;52.998;5.862;2024-02-26T07:30:16;3.60;99.90
54431;DHT22;40342;52.998;5.862;2024-02-26T07:32:42;3.60;99.90
54431;DHT22;40342;52.998;5.862;2024-02-26T07:35:08;3.60;99.90
54431;DHT22;40342;52.998;5.862;2024-02-26T07:37:34;3.60;99.90
54431;DHT22;40342;52.998;5.862;2024-02-26T07:40:00;3.70;99.90
54431;DHT22;40342;52.998;5.862;2024-02-26T07:42:26;3.70;99.90
54431;DHT22;40342;52.998;5.862;2024-02-26T07:44:51;3.70;99.90
54431;DHT22;40342;52.998;5.862;2024-02-26T07:47:18;3.70;99.90
54431;DHT22;40342;52.998;5.862;2024-02-26T07:49:44;3.70;99.90
54431;DHT22;40342;52.998;5.862;2024-02-26T07:52:10;3.70;99.90
54431;DHT22;40342;52.998;5.862;2024-02-26T07:54:36;3.70;99.90
54431;DHT22;40342;52.998;5.862;2024-02-26T07:57:02;3.70;99.90
54431;DHT22;40342;52.998;5.862;2024-02-26T07:59:31;3.80;99.90
54431;DHT22;40342;52.998;5.862;2024-02-26T08:01:56;3.80;99.90
54431;DHT22;40342;52.998;5.862;2024-02-26T08:04:22;3.80;99.90
54431;DHT22;40342;52.998;5.862;2024-02-26T08:06:47;3.70;99.90
54431;DHT22;40342;52.998;5.862;2024-02-26T08:09:13;3.70;99.90
54431;DHT22;40342;52.998;5.862;2024-02-26T08:11:39;3.80;99.90
54431;DHT22;40342;52.998;5.862;2024-02-26T08:14:05;3.80;99.90
54431;DHT22;40342;52.998;5.862;2024-02-26T08:16:30;3.80;99.90
54431;DHT22;40342;52.998;5.862;2024-02-26T08:18:56;3.80;99.90
54431;DHT22;40342;52.998;5.862;2024-02-26T08:21:21;3.80;99.90
54431;DHT22;40342;52.998;5.862;2024-02-26T08:23:47;3.80;99.90
54431;DHT22;40342;52.998;5.862;2024-02-26T08:26:13;3.80;99.90
54431;DHT22;40342;52.998;5.862;2024-02-26T08:28:38;3.80;99.90
54431;DHT22;40342;52.998;5.862;2024-02-26T08:31:04;3.80;99.90
54431;DHT22;40342;52.998;5.862;2024-02-26T08:33:30;3.80;99.90
54431;DHT22;40342;52.998;5.862;2024-02-26T08:35:56;3.80;99.90
54431;DHT22;40342;52.998;5.862;2024-02-26T08:38:22;3.80;99.90
54431;DHT22;40342;52.998;5.862;2024-02-26T08:40:48;3.90;99.90
54431;DHT22;40342;52.998;5.862;2024-02-26T08:43:14;3.90;99.90
54431;DHT22;40342;52.998;5.862;2024-02-26T08:45:39;3.90;99.90
54431;DHT22;40342;52.998;5.862;2024-02-26T08:48:05;3.90;99.90
54431;DHT22;40342;52.998;5.862;2024-02-26T08:50:31;3.90;99.90
54431;DHT22;40342;52.998;5.862;2024-02-26T08:52:57;4.00;99.90
54431;DHT22;40342;52.998;5.862;2024-02-26T08:55:22;4.00;99.90
54431;DHT22;40342;52.998;5.862;2024-02-26T08:57:48;4.00;99.90
54431;DHT22;40342;52.998;5.862;2024-02-26T09:00:14;4.10;99.90
54431;DHT22;40342;52.998;5.862;2024-02-26T09:02:41;4.10;99.90
54431;DHT22;40342;52.998;5.862;2024-02-26T09:05:09;4.10;99.90
54431;DHT22;40342;52.998;5.862;2024-02-26T09:07:35;4.10;99.90
54431;DHT22;40342;52.998;5.862;2024-02-26T09:10:02;4.20;99.90
54431;DHT22;40342;52.998;5.862;2024-02-26T09:12:27;4.20;99.90
54431;DHT22;40342;52.998;5.862;2024-02-26T09:14:53;4.20;99.90
54431;DHT22;40342;52.998;5.862;2024-02-26T09:17:21;4.20;99.90
54431;DHT22;40342;52.998;5.862;2024-02-26T09:19:47;4.30;99.90
54431;DHT22;40342;52.998;5.862;2024-02-26T09:22:13;4.30;99.90
54431;DHT22;40342;52.998;5.862;2024-02-26T09:24:39;4.30;99.90
54431;DHT22;40342;52.998;5.862;2024-02-26T09:27:04;4.40;99.90
54431;DHT22;40342;52.998;5.862;2024-02-26T09:29:30;4.40;99.90
54431;DHT22;40342;52.998;5.862;2024-02-26T09:31:55;4.30;99.90
54431;DHT22;40342;52.998;5.862;2024-02-26T09:34:21;4.40;99.90
54431;DHT22;40342;52.998;5.862;2024-02-26T09:36:47;4.40;99.90
54431;DHT22;40342;52.998;5.862;2024-02-26T09:39:12;4.40;99.90
54431;DHT22;40342;52.998;5.862;2024-02-26T09:41:40;4.50;99.90
54431;DHT22;40342;52.998;5.862;2024-02-26T09:44:06;4.50;99.90
54431;DHT22;40342;52.998;5.862;2024-02-26T09:46:31;4.50;99.90
54431;DHT22;40342;52.998;5.862;2024-02-26T09:48:57;4.50;99.90
54431;DHT22;40342;52.998;5.862;2024-02-26T09:51:23;4.60;99.90
54431;DHT22;40342;52.998;5.862;2024-02-26T09:53:52;4.60;99.90
54431;DHT22;40342;52.998;5.862;2024-02-26T09:56:18;4.60;99.90
54431;DHT22;40342;52.998;5.862;2024-02-26T09:58:44;4.60;99.90
54431;DHT22;40342;52.998;5.862;2024-02-26T10:01:16;4.70;99.90
54431;DHT22;40342;52.998;5.862;2024-02-26T10:03:44;4.60;99.90
54431;DHT22;40342;52.998;5.862;2024-02-26T10:06:11;4.70;99.90
54431;DHT22;40342;52.998;5.862;2024-02-26T10:08:37;4.70;99.90
54431;DHT22;40342;52.998;5.862;2024-02-26T10:11:10;4.80;99.90
54431;DHT22;40342;52.998;5.862;2024-02-26T10:13:36;4.80;99.90
54431;DHT22;40342;52.998;5.862;2024-02-26T10:16:02;4.80;99.90
54431;DHT22;40342;52.998;5.862;2024-02-26T10:18:48;4.80;99.90
54431;DHT22;40342;52.998;5.862;2024-02-26T10:21:16;4.90;99.90
54431;DHT22;40342;52.998;5.862;2024-02-26T10:23:43;4.90;99.90
54431;DHT22;40342;52.998;5.862;2024-02-26T10:26:10;4.90;99.90
54431;DHT22;40342;52.998;5.862;2024-02-26T10:28:39;4.90;99.90
54431;DHT22;40342;52.998;5.862;2024-02-26T10:31:04;5.00;99.90
54431;DHT22;40342;52.998;5.862;2024-02-26T10:33:33;5.00;99.90
54431;DHT22;40342;52.998;5.862;2024-02-26T10:36:01;5.00;99.90
54431;DHT22;40342;52.998;5.862;2024-02-26T10:38:27;5.00;99.90
54431;DHT22;40342;52.998;5.862;2024-02-26T10:40:53;5.10;99.90
54431;DHT22;40342;52.998;5.862;2024-02-26T10:43:18;5.10;99.90
54431;DHT22;40342;52.998;5.862;2024-02-26T10:45:44;5.20;99.90
54431;DHT22;40342;52.998;5.862;2024-02-26T10:48:12;5.10;99.90
54431;DHT22;40342;52.998;5.862;2024-02-26T10:50:38;5.20;99.90
54431;DHT22;40342;52.998;5.862;2024-02-26T10:53:13;5.20;99.90
54431;DHT22;40342;52.998;5.862;2024-02-26T10:55:42;5.20;99.90
54431;DHT22;40342;52.998;5.862;2024-02-26T10:58:09;5.20;99.90
54431;DHT22;40342;52.998;5.862;2024-02-26T11:00:36;5.20;99.90
54431;DHT22;40342;52.998;5.862;2024-02-26T11:03:04;5.20;99.90
54431;DHT22;40342;52.998;5.862;2024-02-26T11:05:31;5.20;99.90
54431;DHT22;40342;52.998;5.862;2024-02-26T11:08:00;5.30;99.90
54431;DHT22;40342;52.998;5.862;2024-02-26T11:10:27;5.30;99.90
54431;DHT22;40342;52.998;5.862;2024-02-26T11:12:55;5.20;99.90
54431;DHT22;40342;52.998;5.862;2024-02-26T11:15:21;5.30;99.90
54431;DHT22;40342;52.998;5.862;2024-02-26T11:17:48;5.30;99.90
54431;DHT22;40342;52.998;5.862;2024-02-26T11:20:14;5.30;99.90
54431;DHT22;40342;52.998;5.862;2024-02-26T11:22:40;5.40;99.90
54431;DHT22;40342;52.998;5.862;2024-02-26T11:25:06;5.40;99.90
54431;DHT22;40342;52.998;5.862;2024-02-26T11:27:45;5.40;99.90
54431;DHT22;40342;52.998;5.862;2024-02-26T11:30:12;5.50;99.90
54431;DHT22;40342;52.998;5.862;2024-02-26T11:32:39;5.50;99.90
54431;DHT22;40342;52.998;5.862;2024-02-26T11:35:05;5.50;99.90
54431;DHT22;40342;52.998;5.862;2024-02-26T11:37:31;5.60;99.90
54431;DHT22;40342;52.998;5.862;2024-02-26T11:39:59;5.60;99.90
54431;DHT22;40342;52.998;5.862;2024-02-26T11:42:28;5.60;99.90
54431;DHT22;40342;52.998;5.862;2024-02-26T11:44:55;5.70;99.90
54431;DHT22;40342;52.998;5.862;2024-02-26T11:47:27;5.70;99.90
54431;DHT22;40342;52.998;5.862;2024-02-26T11:49:53;5.70;99.90
54431;DHT22;40342;52.998;5.862;2024-02-26T11:52:18;5.70;99.90
54431;DHT22;40342;52.998;5.862;2024-02-26T11:54:56;5.80;99.90
54431;DHT22;40342;52.998;5.862;2024-02-26T11:57:38;5.70;99.90
54431;DHT22;40342;52.998;5.862;2024-02-26T12:05:16;5.80;99.90
54431;DHT22;40342;52.998;5.862;2024-02-26T12:10:34;5.80;99.90
54431;DHT22;40342;52.998;5.862;2024-02-26T12:13:16;5.80;99.90
54431;DHT22;40342;52.998;5.862;2024-02-26T12:15:54;5.80;99.90
54431;DHT22;40342;52.998;5.862;2024-02-26T12:18:21;5.80;99.90
54431;DHT22;40342;52.998;5.862;2024-02-26T12:20:58;5.80;99.90
54431;DHT22;40342;52.998;5.862;2024-02-26T12:23:25;5.80;99.90
54431;DHT22;40342;52.998;5.862;2024-02-26T12:25:50;5.80;99.90
54431;DHT22;40342;52.998;5.862;2024-02-26T12:28:16;5.80;99.90
54431;DHT22;40342;52.998;5.862;2024-02-26T12:30:41;5.80;99.90
54431;DHT22;40342;52.998;5.862;2024-02-26T12:33:07;5.80;99.90
54431;DHT22;40342;52.998;5.862;2024-02-26T12:35:35;5.80;99.90
54431;DHT22;40342;52.998;5.862;2024-02-26T12:38:01;5.80;99.90
54431;DHT22;40342;52.998;5.862;2024-02-26T12:40:29;5.80;99.90
54431;DHT22;40342;52.998;5.862;2024-02-26T12:42:55;5.80;99.90
54431;DHT22;40342;52.998;5.862;2024-02-26T12:45:21;5.80;99.90
54431;DHT22;40342;52.998;5.862;2024-02-26T12:47:47;5.80;99.90
54431;DHT22;40342;52.998;5.862;2024-02-26T12:50:13;5.80;99.90
54431;DHT22;40342;52.998;5.862;2024-02-26T12:52:43;5.80;99.90
54431;DHT22;40342;52.998;5.862;2024-02-26T12:55:13;5.80;99.90
54431;DHT22;40342;52.998;5.862;2024-02-26T12:57:40;5.80;99.90
54431;DHT22;40342;52.998;5.862;2024-02-26T13:00:09;5.80;99.90
54431;DHT22;40342;52.998;5.862;2024-02-26T13:02:37;5.70;99.90
54431;DHT22;40342;52.998;5.862;2024-02-26T13:05:04;5.70;99.90
54431;DHT22;40342;52.998;5.862;2024-02-26T13:07:31;5.70;99.90
54431;DHT22;40342;52.998;5.862;2024-02-26T13:09:57;5.70;99.90
54431;DHT22;40342;52.998;5.862;2024-02-26T13:12:23;5.70;99.90
54431;DHT22;40342;52.998;5.862;2024-02-26T13:14:59;5.70;99.90
54431;DHT22;40342;52.998;5.862;2024-02-26T13:17:25;5.70;99.90
54431;DHT22;40342;52.998;5.862;2024-02-26T13:19:53;5.70;99.90
54431;DHT22;40342;52.998;5.862;2024-02-26T13:22:21;5.70;99.90
54431;DHT22;40342;52.998;5.862;2024-02-26T13:24:53;5.70;99.90
54431;DHT22;40342;52.998;5.862;2024-02-26T13:27:26;5.70;99.90
54431;DHT22;40342;52.998;5.862;2024-02-26T13:30:11;5.70;99.90
54431;DHT22;40342;52.998;5.862;2024-02-26T13:32:39;5.70;99.90
54431;DHT22;40342;52.998;5.862;2024-02-26T13:35:10;5.70;99.90
54431;DHT22;40342;52.998;5.862;2024-02-26T13:37:36;5.70;99.90
54431;DHT22;40342;52.998;5.862;2024-02-26T13:40:06;5.70;99.90
54431;DHT22;40342;52.998;5.862;2024-02-26T13:42:34;5.70;99.90
54431;DHT22;40342;52.998;5.862;2024-02-26T13:45:00;5.70;99.90
54431;DHT22;40342;52.998;5.862;2024-02-26T13:47:25;5.70;99.90
54431;DHT22;40342;52.998;5.862;2024-02-26T13:49:51;5.70;99.90
54431;DHT22;40342;52.998;5.862;2024-02-26T13:52:17;5.60;99.90
54431;DHT22;40342;52.998;5.862;2024-02-26T13:54:43;5.60;99.90
54431;DHT22;40342;52.998;5.862;2024-02-26T13:57:08;5.60;99.90
54431;DHT22;40342;52.998;5.862;2024-02-26T13:59:34;5.60;99.90
54431;DHT22;40342;52.998;5.862;2024-02-26T14:02:00;5.60;99.90
54431;DHT22;40342;52.998;5.862;2024-02-26T14:04:26;5.60;99.90
54431;DHT22;40342;52.998;5.862;2024-02-26T14:06:51;5.60;99.90
54431;DHT22;40342;52.998;5.862;2024-02-26T14:09:17;5.60;99.90
54431;DHT22;40342;52.998;5.862;2024-02-26T14:11:45;5.60;99.90
54431;DHT22;40342;52.998;5.862;2024-02-26T14:14:11;5.60;99.90
54431;DHT22;40342;52.998;5.862;2024-02-26T14:16:36;5.60;99.90
54431;DHT22;40342;52.998;5.862;2024-02-26T14:19:02;5.60;99.90
54431;DHT22;40342;52.998;5.862;2024-02-26T14:21:28;5.60;99.90
54431;DHT22;40342;52.998;5.862;2024-02-26T14:23:55;5.60;99.90
54431;DHT22;40342;52.998;5.862;2024-02-26T14:26:22;5.60;99.90
54431;DHT22;40342;52.998;5.862;2024-02-26T14:28:47;5.60;99.90
54431;DHT22;40342;52.998;5.862;2024-02-26T14:31:13;5.60;99.90
54431;DHT22;40342;52.998;5.862;2024-02-26T14:33:42;5.50;99.90
54431;DHT22;40342;52.998;5.862;2024-02-26T14:36:08;5.50;99.90
54431;DHT22;40342;52.998;5.862;2024-02-26T14:38:34;5.60;99.90
54431;DHT22;40342;52.998;5.862;2024-02-26T14:40:59;5.60;99.90
54431;DHT22;40342;52.998;5.862;2024-02-26T14:43:25;5.50;99.90
54431;DHT22;40342;52.998;5.862;2024-02-26T14:45:50;5.60;99.90
54431;DHT22;40342;52.998;5.862;2024-02-26T14:48:16;5.60;99.90
54431;DHT22;40342;52.998;5.862;2024-02-26T14:50:42;5.60;99.90
54431;DHT22;40342;52.998;5.862;2024-02-26T14:53:07;5.60;99.90
54431;DHT22;40342;52.998;5.862;2024-02-26T14:55:33;5.70;99.90
54431;DHT22;40342;52.998;5.862;2024-02-26T14:57:59;5.60;99.90
54431;DHT22;40342;52.998;5.862;2024-02-26T15:00:25;5.50;99.90
54431;DHT22;40342;52.998;5.862;2024-02-26T15:02:50;5.50;99.90
54431;DHT22;40342;52.998;5.862;2024-02-26T15:05:17;5.50;99.90
54431;DHT22;40342;52.998;5.862;2024-02-26T15:07:45;5.50;99.90
54431;DHT22;40342;52.998;5.862;2024-02-26T15:10:10;5.60;99.90
54431;DHT22;40342;52.998;5.862;2024-02-26T15:12:36;5.50;99.90
54431;DHT22;40342;52.998;5.862;2024-02-26T15:15:02;5.50;99.90
54431;DHT22;40342;52.998;5.862;2024-02-26T15:17:28;5.50;99.90
54431;DHT22;40342;52.998;5.862;2024-02-26T15:19:54;5.40;99.90
54431;DHT22;40342;52.998;5.862;2024-02-26T15:22:22;5.50;99.90
54431;DHT22;40342;52.998;5.862;2024-02-26T15:24:48;5.50;99.90
54431;DHT22;40342;52.998;5.862;2024-02-26T15:27:13;5.50;99.90
54431;DHT22;40342;52.998;5.862;2024-02-26T15:29:40;5.40;99.90
54431;DHT22;40342;52.998;5.862;2024-02-26T15:32:05;5.40;99.90
54431;DHT22;40342;52.998;5.862;2024-02-26T15:34:31;5.40;99.90
54431;DHT22;40342;52.998;5.862;2024-02-26T15:36:57;5.40;99.90
54431;DHT22;40342;52.998;5.862;2024-02-26T15:39:22;5.40;99.90
54431;DHT22;40342;52.998;5.862;2024-02-26T15:41:49;5.40;99.90
54431;DHT22;40342;52.998;5.862;2024-02-26T15:44:14;5.30;99.90
54431;DHT22;40342;52.998;5.862;2024-02-26T15:46:41;5.30;99.90
54431;DHT22;40342;52.998;5.862;2024-02-26T15:49:07;5.30;99.90